Kota Taipei, Taiwan

09:49 PM CST on September 30, 2014 (GMT +0800)
ITAIPEIT2 | Change Station
CLOSE
Current Station
Personal Weather Stations
Location: Taipei Da'An, Taiwan
Elevation: 30 ft
Nearby Weather Stations

Elev 30 ft 25.03 °N, 121.53 °E | Updated 11 seconds ago

Mostly Cloudy
Mendung Merata
80.2 °F
Feels Like 84 °F
N
3.0
Angin Variable Angin from Arah Timur Laut
Gusts 11.0 mph

Siang Ini
High -- | Low -- °F
--% Chance of Precip.
Yesterday
High -- | Low -- °F
Precip. -- Inch
5:45 AM 5:42 PM
Waxing Crescent, 37% visible
Tekanan 29.95 Inch
Jarak Pandang 6.2 Mil
Awan Few 1600 ft
Mendung Merata 5000 ft
Ideks Panas 84 °F
Titik Embun 71 °F
Kelembaban 73%
Rainfall 0.02 Inch
Snow Depth Not available.
UV 0.0 out of 12
Pollen Not available.
Air Quality Not available.
Flu Activity Not available.
METAR RCSS 301330Z 10012KT 9999 FEW016 BKN050 27/22 Q1014 NOSIG RMK A2995

More Conditions Fewer Conditions

Tekanan 29.95 Inch
Jarak Pandang 6.2 Mil
Awan Few 1600 ft
Mendung Merata 5000 ft
Ideks Panas 84 °F
Titik Embun 71 °F
Kelembaban 73%
Rainfall 0.02 Inch
Snow Depth Not available.
UV 0.0 out of 12
Pollen Not available.
Air Quality Not available.
Flu Activity Not available.
METAR RCSS 301330Z 10012KT 9999 FEW016 BKN050 27/22 Q1014 NOSIG RMK A2995

More Conditions Fewer Conditions

10-Day Weather Forecast

Almanac

Astronomi

Sep. 30, 2014 Rise Set
Actual Time 5:45 AM CST 5:42 PM CST
Civil Twilight 5:22 AM CST 6:05 PM CST
Nautical Twilight 4:56 AM CST 6:31 PM CST
Astronomical Twilight 4:29 AM CST 6:58 PM CST
Moon 10:53 AM CST 10:05 PM CST
Length Of Visible Light 12h 42m
Lama Satu Hari
11h 56m
Tomorrow will be 1m 27s shorter.
Waxing Crescent, 37% of the Moon is Illuminated
Siang Ini
Waxing Crescent
Oct 1
Triwulan Pertama
Oct 8
Bulan Purnama
Oct 15
Kuartil Terakhir
Oct 23
New

Yesterday's Extremes

Country Highs Country Lows

Community

WunderPhotos

Upload Photos

1,757,636 photos uploaded!

Nearby

Snow Depth

Not available.

Earthquake Activity

City Distance Mag. Time & Date
No recent earthquake activity has been reported nearby.
Minimum magnitude displayed is 2.5.

Coastal Water Temperatures

Lokasi Temperatur
No Stations Reporting

Nearby Weather Stations